Boston, Massachusetts
Traffic Map
Current Weather Conditions
Boston, Massachusetts
Broken Clouds
Broken Clouds

Feels Like: 6°
Wind Chill: Ceiling: 10000
Heat Index: Visibility: 10mi
Dew Point: Wind: 10mph
Humidity: 77% Direction: 70° (ENE)
Pressure: 29.88in Gusts: 0mph
Raw Report DataKBOS 181854Z 07009KT 10SM FEW065 BKN100 08/04 A2988 RMK AO2 SLP117 T00830044
Traffic Incident Summary
Active as of:
Severity:
Category:
InformationThere was an issue retrieving the traffic information for this location. Please try a different location or try again shortly.
Advertisements
Track Severe Weather on mobile